sensor_id;sensor_type;location;lat;lon;timestamp;P1;durP1;ratioP1;P2;durP2;ratioP2
33876;SDS011;20166;51.738;7.158;2024-01-07T00:00:31;7.33;;;4.00;;
33876;SDS011;20166;51.738;7.158;2024-01-07T00:03:17;13.43;;;5.83;;
33876;SDS011;20166;51.738;7.158;2024-01-07T00:06:05;9.53;;;5.20;;
33876;SDS011;20166;51.738;7.158;2024-01-07T00:08:52;8.90;;;5.60;;
33876;SDS011;20166;51.738;7.158;2024-01-07T00:11:38;6.10;;;3.70;;
33876;SDS011;20166;51.738;7.158;2024-01-07T00:14:24;11.50;;;6.60;;
33876;SDS011;20166;51.738;7.158;2024-01-07T00:17:10;10.67;;;5.47;;
33876;SDS011;20166;51.738;7.158;2024-01-07T00:19:57;13.77;;;6.70;;
33876;SDS011;20166;51.738;7.158;2024-01-07T00:22:45;9.43;;;5.67;;
33876;SDS011;20166;51.738;7.158;2024-01-07T00:25:31;13.40;;;6.03;;
33876;SDS011;20166;51.738;7.158;2024-01-07T00:28:17;9.40;;;5.30;;
33876;SDS011;20166;51.738;7.158;2024-01-07T00:31:04;12.23;;;5.33;;
33876;SDS011;20166;51.738;7.158;2024-01-07T00:33:52;11.50;;;5.23;;
33876;SDS011;20166;51.738;7.158;2024-01-07T00:36:38;10.90;;;5.57;;
33876;SDS011;20166;51.738;7.158;2024-01-07T00:39:26;9.17;;;5.90;;
33876;SDS011;20166;51.738;7.158;2024-01-07T00:42:13;9.63;;;5.70;;
33876;SDS011;20166;51.738;7.158;2024-01-07T00:44:59;7.43;;;5.13;;
33876;SDS011;20166;51.738;7.158;2024-01-07T00:47:46;9.40;;;5.30;;
33876;SDS011;20166;51.738;7.158;2024-01-07T00:50:32;8.90;;;6.00;;
33876;SDS011;20166;51.738;7.158;2024-01-07T00:53:18;7.93;;;5.33;;
33876;SDS011;20166;51.738;7.158;2024-01-07T00:56:06;10.90;;;5.37;;
33876;SDS011;20166;51.738;7.158;2024-01-07T00:58:53;10.43;;;6.47;;
33876;SDS011;20166;51.738;7.158;2024-01-07T01:01:39;9.53;;;5.90;;
33876;SDS011;20166;51.738;7.158;2024-01-07T01:04:25;10.87;;;5.03;;
33876;SDS011;20166;51.738;7.158;2024-01-07T01:07:12;10.00;;;5.40;;
33876;SDS011;20166;51.738;7.158;2024-01-07T01:09:58;10.57;;;5.73;;
33876;SDS011;20166;51.738;7.158;2024-01-07T01:12:46;9.20;;;5.60;;
33876;SDS011;20166;51.738;7.158;2024-01-07T01:15:32;12.83;;;6.23;;
33876;SDS011;20166;51.738;7.158;2024-01-07T01:18:18;9.83;;;6.23;;
33876;SDS011;20166;51.738;7.158;2024-01-07T01:21:05;6.70;;;4.50;;
33876;SDS011;20166;51.738;7.158;2024-01-07T01:23:55;12.57;;;6.53;;
33876;SDS011;20166;51.738;7.158;2024-01-07T01:26:41;10.57;;;7.23;;
33876;SDS011;20166;51.738;7.158;2024-01-07T01:29:29;12.53;;;6.77;;
33876;SDS011;20166;51.738;7.158;2024-01-07T01:32:15;8.40;;;5.30;;
33876;SDS011;20166;51.738;7.158;2024-01-07T01:35:01;9.13;;;5.33;;
33876;SDS011;20166;51.738;7.158;2024-01-07T01:37:48;14.07;;;5.97;;
33876;SDS011;20166;51.738;7.158;2024-01-07T01:40:34;8.83;;;6.23;;
33876;SDS011;20166;51.738;7.158;2024-01-07T01:43:24;9.33;;;5.30;;
33876;SDS011;20166;51.738;7.158;2024-01-07T01:46:11;10.63;;;5.87;;
33876;SDS011;20166;51.738;7.158;2024-01-07T01:48:59;18.63;;;5.93;;
33876;SDS011;20166;51.738;7.158;2024-01-07T01:51:47;11.53;;;6.57;;
33876;SDS011;20166;51.738;7.158;2024-01-07T01:54:34;10.90;;;5.50;;
33876;SDS011;20166;51.738;7.158;2024-01-07T01:57:21;8.93;;;6.10;;
33876;SDS011;20166;51.738;7.158;2024-01-07T02:00:08;8.83;;;5.00;;
33876;SDS011;20166;51.738;7.158;2024-01-07T02:02:57;8.40;;;5.77;;
33876;SDS011;20166;51.738;7.158;2024-01-07T02:05:45;9.20;;;5.67;;
33876;SDS011;20166;51.738;7.158;2024-01-07T02:08:34;7.43;;;5.40;;
33876;SDS011;20166;51.738;7.158;2024-01-07T02:11:21;9.20;;;5.47;;
33876;SDS011;20166;51.738;7.158;2024-01-07T02:14:08;7.07;;;5.03;;
33876;SDS011;20166;51.738;7.158;2024-01-07T02:16:54;7.53;;;4.37;;
33876;SDS011;20166;51.738;7.158;2024-01-07T02:19:42;8.20;;;5.10;;
33876;SDS011;20166;51.738;7.158;2024-01-07T02:22:29;8.47;;;5.27;;
33876;SDS011;20166;51.738;7.158;2024-01-07T02:25:17;6.60;;;4.47;;
33876;SDS011;20166;51.738;7.158;2024-01-07T02:28:03;8.60;;;4.97;;
33876;SDS011;20166;51.738;7.158;2024-01-07T02:30:50;7.33;;;3.83;;
33876;SDS011;20166;51.738;7.158;2024-01-07T02:33:36;9.00;;;5.57;;
33876;SDS011;20166;51.738;7.158;2024-01-07T02:36:23;8.83;;;5.53;;
33876;SDS011;20166;51.738;7.158;2024-01-07T02:39:09;8.47;;;4.77;;
33876;SDS011;20166;51.738;7.158;2024-01-07T02:41:56;5.83;;;3.60;;
33876;SDS011;20166;51.738;7.158;2024-01-07T02:44:43;7.03;;;4.80;;
33876;SDS011;20166;51.738;7.158;2024-01-07T02:47:29;5.63;;;4.03;;
33876;SDS011;20166;51.738;7.158;2024-01-07T02:50:16;7.33;;;4.53;;
33876;SDS011;20166;51.738;7.158;2024-01-07T02:53:02;4.47;;;3.73;;
33876;SDS011;20166;51.738;7.158;2024-01-07T02:55:49;8.43;;;4.90;;
33876;SDS011;20166;51.738;7.158;2024-01-07T02:58:37;8.27;;;4.70;;
33876;SDS011;20166;51.738;7.158;2024-01-07T03:01:23;7.03;;;3.57;;
33876;SDS011;20166;51.738;7.158;2024-01-07T03:04:10;6.50;;;4.77;;
33876;SDS011;20166;51.738;7.158;2024-01-07T03:06:58;6.27;;;3.87;;
33876;SDS011;20166;51.738;7.158;2024-01-07T03:09:44;6.80;;;4.20;;
33876;SDS011;20166;51.738;7.158;2024-01-07T03:12:32;6.93;;;4.37;;
33876;SDS011;20166;51.738;7.158;2024-01-07T03:15:20;4.87;;;3.87;;
33876;SDS011;20166;51.738;7.158;2024-01-07T03:18:06;5.77;;;3.87;;
33876;SDS011;20166;51.738;7.158;2024-01-07T03:20:53;5.43;;;4.50;;
33876;SDS011;20166;51.738;7.158;2024-01-07T03:23:39;8.60;;;4.80;;
33876;SDS011;20166;51.738;7.158;2024-01-07T03:26:29;8.63;;;4.97;;
33876;SDS011;20166;51.738;7.158;2024-01-07T03:29:17;6.37;;;4.80;;
33876;SDS011;20166;51.738;7.158;2024-01-07T03:32:05;7.17;;;4.10;;
33876;SDS011;20166;51.738;7.158;2024-01-07T03:34:51;6.07;;;4.50;;
33876;SDS011;20166;51.738;7.158;2024-01-07T03:37:38;6.90;;;4.10;;
33876;SDS011;20166;51.738;7.158;2024-01-07T03:40:25;7.93;;;4.80;;
33876;SDS011;20166;51.738;7.158;2024-01-07T03:43:11;7.07;;;4.20;;
33876;SDS011;20166;51.738;7.158;2024-01-07T03:45:57;5.10;;;3.97;;
33876;SDS011;20166;51.738;7.158;2024-01-07T03:48:45;10.50;;;4.97;;
33876;SDS011;20166;51.738;7.158;2024-01-07T03:51:32;8.33;;;4.43;;
33876;SDS011;20166;51.738;7.158;2024-01-07T03:54:18;8.47;;;4.43;;
33876;SDS011;20166;51.738;7.158;2024-01-07T03:57:04;8.47;;;4.93;;
33876;SDS011;20166;51.738;7.158;2024-01-07T03:59:51;7.77;;;4.63;;
33876;SDS011;20166;51.738;7.158;2024-01-07T04:02:37;9.57;;;4.50;;
33876;SDS011;20166;51.738;7.158;2024-01-07T04:05:25;5.30;;;4.23;;
33876;SDS011;20166;51.738;7.158;2024-01-07T04:08:11;6.33;;;4.17;;
33876;SDS011;20166;51.738;7.158;2024-01-07T04:11:01;6.83;;;4.13;;
33876;SDS011;20166;51.738;7.158;2024-01-07T04:13:48;5.83;;;4.37;;
33876;SDS011;20166;51.738;7.158;2024-01-07T04:16:35;5.37;;;3.63;;
33876;SDS011;20166;51.738;7.158;2024-01-07T04:19:21;6.33;;;4.03;;
33876;SDS011;20166;51.738;7.158;2024-01-07T04:22:09;11.63;;;4.80;;
33876;SDS011;20166;51.738;7.158;2024-01-07T04:24:56;8.33;;;5.07;;
33876;SDS011;20166;51.738;7.158;2024-01-07T04:27:42;6.27;;;4.33;;
33876;SDS011;20166;51.738;7.158;2024-01-07T04:30:28;5.77;;;3.97;;
33876;SDS011;20166;51.738;7.158;2024-01-07T04:33:14;9.87;;;4.33;;
33876;SDS011;20166;51.738;7.158;2024-01-07T04:36:01;9.03;;;5.07;;
33876;SDS011;20166;51.738;7.158;2024-01-07T04:38:50;8.53;;;5.10;;
33876;SDS011;20166;51.738;7.158;2024-01-07T04:41:36;9.23;;;3.87;;
33876;SDS011;20166;51.738;7.158;2024-01-07T04:44:22;9.37;;;5.40;;
33876;SDS011;20166;51.738;7.158;2024-01-07T04:47:22;6.93;;;4.23;;
33876;SDS011;20166;51.738;7.158;2024-01-07T04:50:10;7.90;;;3.97;;
33876;SDS011;20166;51.738;7.158;2024-01-07T04:52:59;11.43;;;5.73;;
33876;SDS011;20166;51.738;7.158;2024-01-07T04:55:46;10.60;;;5.23;;
33876;SDS011;20166;51.738;7.158;2024-01-07T04:58:32;7.40;;;3.80;;
33876;SDS011;20166;51.738;7.158;2024-01-07T05:01:19;6.43;;;4.23;;
33876;SDS011;20166;51.738;7.158;2024-01-07T05:04:05;6.73;;;4.80;;
33876;SDS011;20166;51.738;7.158;2024-01-07T05:06:51;7.67;;;4.70;;
33876;SDS011;20166;51.738;7.158;2024-01-07T05:09:38;5.90;;;4.27;;
33876;SDS011;20166;51.738;7.158;2024-01-07T05:12:26;6.30;;;4.37;;
33876;SDS011;20166;51.738;7.158;2024-01-07T05:15:12;10.27;;;4.37;;
33876;SDS011;20166;51.738;7.158;2024-01-07T05:17:59;11.37;;;5.73;;
33876;SDS011;20166;51.738;7.158;2024-01-07T05:20:45;6.27;;;4.27;;
33876;SDS011;20166;51.738;7.158;2024-01-07T05:23:32;11.60;;;5.73;;
33876;SDS011;20166;51.738;7.158;2024-01-07T05:26:18;6.03;;;5.00;;
33876;SDS011;20166;51.738;7.158;2024-01-07T05:29:06;8.73;;;5.53;;
33876;SDS011;20166;51.738;7.158;2024-01-07T05:31:52;9.00;;;5.70;;
33876;SDS011;20166;51.738;7.158;2024-01-07T05:34:39;8.57;;;5.20;;
33876;SDS011;20166;51.738;7.158;2024-01-07T05:37:25;5.23;;;3.90;;
33876;SDS011;20166;51.738;7.158;2024-01-07T05:40:12;8.43;;;5.47;;
33876;SDS011;20166;51.738;7.158;2024-01-07T05:42:58;8.17;;;5.23;;
33876;SDS011;20166;51.738;7.158;2024-01-07T05:45:46;10.83;;;5.90;;
33876;SDS011;20166;51.738;7.158;2024-01-07T05:48:40;9.73;;;5.27;;
33876;SDS011;20166;51.738;7.158;2024-01-07T05:51:27;6.77;;;3.97;;
33876;SDS011;20166;51.738;7.158;2024-01-07T05:54:13;8.03;;;4.53;;
33876;SDS011;20166;51.738;7.158;2024-01-07T05:57:00;11.50;;;6.07;;
33876;SDS011;20166;51.738;7.158;2024-01-07T05:59:46;6.90;;;4.20;;
33876;SDS011;20166;51.738;7.158;2024-01-07T06:02:39;6.57;;;5.40;;
33876;SDS011;20166;51.738;7.158;2024-01-07T06:05:26;8.43;;;4.73;;
33876;SDS011;20166;51.738;7.158;2024-01-07T06:08:12;6.47;;;4.53;;
33876;SDS011;20166;51.738;7.158;2024-01-07T06:10:59;9.27;;;5.53;;
33876;SDS011;20166;51.738;7.158;2024-01-07T06:13:45;7.90;;;5.10;;
33876;SDS011;20166;51.738;7.158;2024-01-07T06:16:31;5.40;;;3.77;;
33876;SDS011;20166;51.738;7.158;2024-01-07T06:19:19;9.63;;;4.83;;
33876;SDS011;20166;51.738;7.158;2024-01-07T06:22:07;4.60;;;3.80;;
33876;SDS011;20166;51.738;7.158;2024-01-07T06:24:53;8.43;;;4.67;;
33876;SDS011;20166;51.738;7.158;2024-01-07T06:27:40;7.80;;;4.87;;
33876;SDS011;20166;51.738;7.158;2024-01-07T06:30:26;5.97;;;4.10;;
33876;SDS011;20166;51.738;7.158;2024-01-07T06:33:13;7.33;;;4.40;;
33876;SDS011;20166;51.738;7.158;2024-01-07T06:36:01;7.40;;;4.30;;
33876;SDS011;20166;51.738;7.158;2024-01-07T06:38:47;7.50;;;3.57;;
33876;SDS011;20166;51.738;7.158;2024-01-07T06:41:34;7.13;;;4.07;;
33876;SDS011;20166;51.738;7.158;2024-01-07T06:44:20;7.10;;;4.77;;
33876;SDS011;20166;51.738;7.158;2024-01-07T06:47:07;6.90;;;4.37;;
33876;SDS011;20166;51.738;7.158;2024-01-07T06:49:53;4.37;;;3.33;;
33876;SDS011;20166;51.738;7.158;2024-01-07T06:52:41;5.60;;;4.07;;
33876;SDS011;20166;51.738;7.158;2024-01-07T06:55:27;6.23;;;3.30;;
33876;SDS011;20166;51.738;7.158;2024-01-07T06:58:13;7.77;;;4.93;;
33876;SDS011;20166;51.738;7.158;2024-01-07T07:00:59;4.93;;;3.97;;
33876;SDS011;20166;51.738;7.158;2024-01-07T07:03:46;6.07;;;4.53;;
33876;SDS011;20166;51.738;7.158;2024-01-07T07:06:33;6.13;;;3.53;;
33876;SDS011;20166;51.738;7.158;2024-01-07T07:09:21;7.30;;;3.97;;
33876;SDS011;20166;51.738;7.158;2024-01-07T07:12:07;5.20;;;4.50;;
33876;SDS011;20166;51.738;7.158;2024-01-07T07:14:54;7.40;;;3.87;;
33876;SDS011;20166;51.738;7.158;2024-01-07T07:17:41;5.83;;;4.17;;
33876;SDS011;20166;51.738;7.158;2024-01-07T07:20:27;12.03;;;4.10;;
33876;SDS011;20166;51.738;7.158;2024-01-07T07:23:14;6.03;;;3.90;;
33876;SDS011;20166;51.738;7.158;2024-01-07T07:26:01;6.47;;;4.37;;
33876;SDS011;20166;51.738;7.158;2024-01-07T07:28:48;7.23;;;4.40;;
33876;SDS011;20166;51.738;7.158;2024-01-07T07:31:34;7.13;;;3.90;;
33876;SDS011;20166;51.738;7.158;2024-01-07T07:34:21;7.33;;;5.07;;
33876;SDS011;20166;51.738;7.158;2024-01-07T07:37:07;5.87;;;4.07;;
33876;SDS011;20166;51.738;7.158;2024-01-07T07:39:54;4.57;;;3.97;;
33876;SDS011;20166;51.738;7.158;2024-01-07T07:42:42;8.63;;;4.90;;
33876;SDS011;20166;51.738;7.158;2024-01-07T07:45:28;5.70;;;3.67;;
33876;SDS011;20166;51.738;7.158;2024-01-07T07:48:14;7.77;;;4.23;;
33876;SDS011;20166;51.738;7.158;2024-01-07T07:51:01;4.77;;;4.07;;
33876;SDS011;20166;51.738;7.158;2024-01-07T07:53:48;7.53;;;4.97;;
33876;SDS011;20166;51.738;7.158;2024-01-07T07:56:34;5.67;;;4.20;;
33876;SDS011;20166;51.738;7.158;2024-01-07T07:59:23;5.40;;;3.80;;
33876;SDS011;20166;51.738;7.158;2024-01-07T08:02:09;4.77;;;3.83;;
33876;SDS011;20166;51.738;7.158;2024-01-07T08:04:55;4.00;;;3.30;;
33876;SDS011;20166;51.738;7.158;2024-01-07T08:07:42;5.20;;;3.83;;
33876;SDS011;20166;51.738;7.158;2024-01-07T08:10:29;7.20;;;4.30;;
33876;SDS011;20166;51.738;7.158;2024-01-07T08:13:16;4.30;;;3.73;;
33876;SDS011;20166;51.738;7.158;2024-01-07T08:16:05;4.37;;;3.30;;
33876;SDS011;20166;51.738;7.158;2024-01-07T08:18:52;4.83;;;4.17;;
33876;SDS011;20166;51.738;7.158;2024-01-07T08:21:41;4.73;;;3.07;;
33876;SDS011;20166;51.738;7.158;2024-01-07T08:24:27;5.63;;;3.37;;
33876;SDS011;20166;51.738;7.158;2024-01-07T08:27:14;4.43;;;4.03;;
33876;SDS011;20166;51.738;7.158;2024-01-07T08:30:00;4.07;;;3.30;;
33876;SDS011;20166;51.738;7.158;2024-01-07T08:32:48;3.30;;;2.80;;
33876;SDS011;20166;51.738;7.158;2024-01-07T08:35:35;4.47;;;3.23;;
33876;SDS011;20166;51.738;7.158;2024-01-07T08:38:21;6.60;;;3.83;;
33876;SDS011;20166;51.738;7.158;2024-01-07T08:41:07;4.03;;;3.10;;
33876;SDS011;20166;51.738;7.158;2024-01-07T08:43:54;4.90;;;3.67;;
33876;SDS011;20166;51.738;7.158;2024-01-07T08:46:40;3.57;;;2.83;;
33876;SDS011;20166;51.738;7.158;2024-01-07T08:49:28;4.10;;;3.10;;
33876;SDS011;20166;51.738;7.158;2024-01-07T08:52:15;3.80;;;2.80;;
33876;SDS011;20166;51.738;7.158;2024-01-07T08:55:01;4.50;;;3.10;;
33876;SDS011;20166;51.738;7.158;2024-01-07T08:57:50;5.07;;;3.37;;
33876;SDS011;20166;51.738;7.158;2024-01-07T09:00:37;3.63;;;3.20;;
33876;SDS011;20166;51.738;7.158;2024-01-07T09:03:23;4.13;;;2.77;;
33876;SDS011;20166;51.738;7.158;2024-01-07T09:06:11;4.87;;;3.43;;
33876;SDS011;20166;51.738;7.158;2024-01-07T09:08:58;3.73;;;2.83;;
33876;SDS011;20166;51.738;7.158;2024-01-07T09:11:44;4.83;;;3.47;;
33876;SDS011;20166;51.738;7.158;2024-01-07T09:14:33;5.17;;;3.60;;
33876;SDS011;20166;51.738;7.158;2024-01-07T09:17:19;5.57;;;3.67;;
33876;SDS011;20166;51.738;7.158;2024-01-07T09:20:07;4.67;;;2.50;;
33876;SDS011;20166;51.738;7.158;2024-01-07T09:22:55;3.90;;;3.23;;
33876;SDS011;20166;51.738;7.158;2024-01-07T09:25:41;3.20;;;2.90;;
33876;SDS011;20166;51.738;7.158;2024-01-07T09:28:28;4.73;;;3.30;;
33876;SDS011;20166;51.738;7.158;2024-01-07T09:31:14;5.80;;;3.20;;
33876;SDS011;20166;51.738;7.158;2024-01-07T09:34:00;2.77;;;2.40;;
33876;SDS011;20166;51.738;7.158;2024-01-07T09:36:49;7.60;;;3.53;;
33876;SDS011;20166;51.738;7.158;2024-01-07T09:39:39;4.13;;;3.53;;
33876;SDS011;20166;51.738;7.158;2024-01-07T09:42:26;3.83;;;2.57;;
33876;SDS011;20166;51.738;7.158;2024-01-07T09:45:13;5.63;;;3.30;;
33876;SDS011;20166;51.738;7.158;2024-01-07T09:48:00;5.67;;;3.47;;
33876;SDS011;20166;51.738;7.158;2024-01-07T09:50:46;5.80;;;3.63;;
33876;SDS011;20166;51.738;7.158;2024-01-07T09:53:33;2.57;;;2.37;;
33876;SDS011;20166;51.738;7.158;2024-01-07T09:56:23;2.77;;;2.57;;
33876;SDS011;20166;51.738;7.158;2024-01-07T09:59:11;4.53;;;2.63;;
33876;SDS011;20166;51.738;7.158;2024-01-07T10:01:59;4.53;;;2.63;;
33876;SDS011;20166;51.738;7.158;2024-01-07T10:04:46;3.03;;;2.83;;
33876;SDS011;20166;51.738;7.158;2024-01-07T10:07:33;3.23;;;2.93;;
33876;SDS011;20166;51.738;7.158;2024-01-07T10:10:20;3.33;;;2.23;;
33876;SDS011;20166;51.738;7.158;2024-01-07T10:13:08;1.97;;;1.83;;
33876;SDS011;20166;51.738;7.158;2024-01-07T10:15:54;15.17;;;4.10;;
33876;SDS011;20166;51.738;7.158;2024-01-07T10:18:41;3.50;;;2.67;;
33876;SDS011;20166;51.738;7.158;2024-01-07T10:21:27;2.30;;;2.17;;
33876;SDS011;20166;51.738;7.158;2024-01-07T10:24:14;2.27;;;2.07;;
33876;SDS011;20166;51.738;7.158;2024-01-07T10:27:00;5.27;;;2.57;;
33876;SDS011;20166;51.738;7.158;2024-01-07T10:29:48;2.93;;;2.00;;
33876;SDS011;20166;51.738;7.158;2024-01-07T10:32:36;2.20;;;2.00;;
33876;SDS011;20166;51.738;7.158;2024-01-07T10:35:28;2.40;;;1.93;;
33876;SDS011;20166;51.738;7.158;2024-01-07T10:38:18;2.30;;;1.63;;
33876;SDS011;20166;51.738;7.158;2024-01-07T10:41:06;4.13;;;3.03;;
33876;SDS011;20166;51.738;7.158;2024-01-07T10:43:56;3.27;;;2.47;;
33876;SDS011;20166;51.738;7.158;2024-01-07T10:46:46;1.60;;;1.50;;
33876;SDS011;20166;51.738;7.158;2024-01-07T10:49:33;2.33;;;2.13;;
33876;SDS011;20166;51.738;7.158;2024-01-07T10:52:22;3.50;;;2.60;;
33876;SDS011;20166;51.738;7.158;2024-01-07T10:55:10;2.27;;;2.07;;
33876;SDS011;20166;51.738;7.158;2024-01-07T10:57:57;3.87;;;2.10;;
33876;SDS011;20166;51.738;7.158;2024-01-07T11:00:45;1.97;;;1.73;;
33876;SDS011;20166;51.738;7.158;2024-01-07T11:03:36;2.60;;;2.23;;
33876;SDS011;20166;51.738;7.158;2024-01-07T11:06:27;4.73;;;2.33;;
33876;SDS011;20166;51.738;7.158;2024-01-07T11:09:20;2.30;;;2.13;;
33876;SDS011;20166;51.738;7.158;2024-01-07T11:12:14;2.70;;;2.10;;
33876;SDS011;20166;51.738;7.158;2024-01-07T11:15:01;2.43;;;2.23;;
33876;SDS011;20166;51.738;7.158;2024-01-07T11:17:47;2.90;;;2.00;;
33876;SDS011;20166;51.738;7.158;2024-01-07T11:20:35;1.97;;;1.70;;
33876;SDS011;20166;51.738;7.158;2024-01-07T11:23:28;2.63;;;2.10;;
33876;SDS011;20166;51.738;7.158;2024-01-07T11:26:15;2.20;;;2.00;;
33876;SDS011;20166;51.738;7.158;2024-01-07T11:29:02;1.90;;;1.80;;
33876;SDS011;20166;51.738;7.158;2024-01-07T11:31:49;2.73;;;1.83;;
33876;SDS011;20166;51.738;7.158;2024-01-07T11:34:39;2.07;;;1.90;;
33876;SDS011;20166;51.738;7.158;2024-01-07T11:37:28;4.07;;;2.03;;
33876;SDS011;20166;51.738;7.158;2024-01-07T11:40:14;4.07;;;2.50;;
33876;SDS011;20166;51.738;7.158;2024-01-07T11:43:01;2.43;;;1.93;;
33876;SDS011;20166;51.738;7.158;2024-01-07T11:45:49;1.93;;;1.60;;
33876;SDS011;20166;51.738;7.158;2024-01-07T11:48:36;1.57;;;1.47;;
33876;SDS011;20166;51.738;7.158;2024-01-07T11:51:22;2.37;;;1.77;;
33876;SDS011;20166;51.738;7.158;2024-01-07T11:54:10;1.80;;;1.70;;
33876;SDS011;20166;51.738;7.158;2024-01-07T11:56:57;1.73;;;1.63;;
33876;SDS011;20166;51.738;7.158;2024-01-07T11:59:43;1.50;;;1.40;;
33876;SDS011;20166;51.738;7.158;2024-01-07T12:02:30;2.10;;;1.90;;
33876;SDS011;20166;51.738;7.158;2024-01-07T12:05:17;3.20;;;2.53;;
33876;SDS011;20166;51.738;7.158;2024-01-07T12:08:04;1.60;;;1.50;;
33876;SDS011;20166;51.738;7.158;2024-01-07T12:10:52;1.33;;;1.27;;
33876;SDS011;20166;51.738;7.158;2024-01-07T12:13:39;2.30;;;1.70;;
33876;SDS011;20166;51.738;7.158;2024-01-07T12:16:26;1.83;;;1.70;;
33876;SDS011;20166;51.738;7.158;2024-01-07T12:19:12;1.40;;;1.30;;
33876;SDS011;20166;51.738;7.158;2024-01-07T12:22:02;2.20;;;1.60;;
33876;SDS011;20166;51.738;7.158;2024-01-07T12:24:59;3.53;;;1.97;;
33876;SDS011;20166;51.738;7.158;2024-01-07T12:27:47;1.30;;;1.20;;
33876;SDS011;20166;51.738;7.158;2024-01-07T12:30:37;1.87;;;1.53;;
33876;SDS011;20166;51.738;7.158;2024-01-07T12:33:23;2.67;;;1.77;;
33876;SDS011;20166;51.738;7.158;2024-01-07T12:36:12;2.30;;;1.57;;
33876;SDS011;20166;51.738;7.158;2024-01-07T12:39:00;1.27;;;1.23;;
33876;SDS011;20166;51.738;7.158;2024-01-07T12:41:46;7.63;;;1.83;;
33876;SDS011;20166;51.738;7.158;2024-01-07T12:44:34;1.90;;;1.77;;
33876;SDS011;20166;51.738;7.158;2024-01-07T12:47:22;1.97;;;1.40;;
33876;SDS011;20166;51.738;7.158;2024-01-07T12:50:09;1.00;;;1.00;;
33876;SDS011;20166;51.738;7.158;2024-01-07T12:52:56;1.10;;;1.10;;
33876;SDS011;20166;51.738;7.158;2024-01-07T12:55:44;1.20;;;1.10;;
33876;SDS011;20166;51.738;7.158;2024-01-07T12:58:31;1.43;;;1.33;;
33876;SDS011;20166;51.738;7.158;2024-01-07T13:01:19;2.40;;;1.60;;
33876;SDS011;20166;51.738;7.158;2024-01-07T13:04:05;1.37;;;1.30;;
33876;SDS011;20166;51.738;7.158;2024-01-07T13:06:54;1.70;;;1.60;;
33876;SDS011;20166;51.738;7.158;2024-01-07T13:09:41;1.73;;;1.63;;
33876;SDS011;20166;51.738;7.158;2024-01-07T13:12:29;1.70;;;1.60;;
33876;SDS011;20166;51.738;7.158;2024-01-07T13:15:31;1.77;;;1.67;;
33876;SDS011;20166;51.738;7.158;2024-01-07T13:18:19;2.10;;;1.63;;
33876;SDS011;20166;51.738;7.158;2024-01-07T13:21:07;1.23;;;1.23;;
33876;SDS011;20166;51.738;7.158;2024-01-07T13:23:54;1.87;;;1.77;;
33876;SDS011;20166;51.738;7.158;2024-01-07T13:26:42;3.77;;;1.80;;
33876;SDS011;20166;51.738;7.158;2024-01-07T13:29:28;2.50;;;1.67;;
33876;SDS011;20166;51.738;7.158;2024-01-07T13:32:15;1.60;;;1.50;;
33876;SDS011;20166;51.738;7.158;2024-01-07T13:35:04;2.10;;;1.90;;
33876;SDS011;20166;51.738;7.158;2024-01-07T13:37:55;2.07;;;1.87;;
33876;SDS011;20166;51.738;7.158;2024-01-07T13:40:42;1.80;;;1.50;;
33876;SDS011;20166;51.738;7.158;2024-01-07T13:43:28;1.20;;;1.10;;
33876;SDS011;20166;51.738;7.158;2024-01-07T13:46:15;1.50;;;1.40;;
33876;SDS011;20166;51.738;7.158;2024-01-07T13:49:04;1.73;;;1.60;;
33876;SDS011;20166;51.738;7.158;2024-01-07T13:51:53;3.57;;;1.90;;
33876;SDS011;20166;51.738;7.158;2024-01-07T13:54:40;1.37;;;1.20;;
33876;SDS011;20166;51.738;7.158;2024-01-07T13:57:27;1.10;;;1.10;;
33876;SDS011;20166;51.738;7.158;2024-01-07T14:00:15;1.40;;;1.30;;
33876;SDS011;20166;51.738;7.158;2024-01-07T14:03:05;1.60;;;1.50;;
33876;SDS011;20166;51.738;7.158;2024-01-07T14:05:55;1.57;;;1.47;;
33876;SDS011;20166;51.738;7.158;2024-01-07T14:08:43;0.93;;;0.93;;
33876;SDS011;20166;51.738;7.158;2024-01-07T14:11:29;1.67;;;1.57;;
33876;SDS011;20166;51.738;7.158;2024-01-07T14:14:16;1.47;;;1.37;;
33876;SDS011;20166;51.738;7.158;2024-01-07T14:17:04;1.40;;;1.33;;
33876;SDS011;20166;51.738;7.158;2024-01-07T14:19:50;1.63;;;1.50;;
33876;SDS011;20166;51.738;7.158;2024-01-07T14:22:38;1.80;;;1.43;;
33876;SDS011;20166;51.738;7.158;2024-01-07T14:25:26;1.50;;;1.40;;
33876;SDS011;20166;51.738;7.158;2024-01-07T14:28:12;2.93;;;1.40;;
33876;SDS011;20166;51.738;7.158;2024-01-07T14:30:59;1.27;;;1.27;;
33876;SDS011;20166;51.738;7.158;2024-01-07T14:33:45;1.67;;;1.57;;
33876;SDS011;20166;51.738;7.158;2024-01-07T14:36:32;1.70;;;1.60;;
33876;SDS011;20166;51.738;7.158;2024-01-07T14:39:18;1.97;;;1.60;;
33876;SDS011;20166;51.738;7.158;2024-01-07T14:42:05;1.47;;;1.37;;
33876;SDS011;20166;51.738;7.158;2024-01-07T14:44:52;3.17;;;2.20;;
33876;SDS011;20166;51.738;7.158;2024-01-07T14:47:38;1.50;;;1.40;;
33876;SDS011;20166;51.738;7.158;2024-01-07T14:50:25;3.10;;;1.80;;
33876;SDS011;20166;51.738;7.158;2024-01-07T14:53:23;1.97;;;1.47;;
33876;SDS011;20166;51.738;7.158;2024-01-07T14:56:09;2.07;;;1.43;;
33876;SDS011;20166;51.738;7.158;2024-01-07T14:58:57;5.67;;;3.73;;
33876;SDS011;20166;51.738;7.158;2024-01-07T15:01:44;2.00;;;1.60;;
33876;SDS011;20166;51.738;7.158;2024-01-07T15:04:31;1.60;;;1.43;;
33876;SDS011;20166;51.738;7.158;2024-01-07T15:07:18;1.37;;;1.33;;
33876;SDS011;20166;51.738;7.158;2024-01-07T15:10:06;1.40;;;1.30;;
33876;SDS011;20166;51.738;7.158;2024-01-07T15:12:53;3.03;;;1.37;;
33876;SDS011;20166;51.738;7.158;2024-01-07T15:15:52;2.47;;;1.80;;
33876;SDS011;20166;51.738;7.158;2024-01-07T15:18:39;1.57;;;1.47;;
33876;SDS011;20166;51.738;7.158;2024-01-07T15:21:25;2.23;;;1.73;;
33876;SDS011;20166;51.738;7.158;2024-01-07T15:24:12;1.50;;;1.40;;
33876;SDS011;20166;51.738;7.158;2024-01-07T15:26:58;2.37;;;2.00;;
33876;SDS011;20166;51.738;7.158;2024-01-07T15:29:44;1.47;;;1.37;;
33876;SDS011;20166;51.738;7.158;2024-01-07T15:32:33;4.53;;;1.77;;
33876;SDS011;20166;51.738;7.158;2024-01-07T15:35:20;2.93;;;1.80;;
33876;SDS011;20166;51.738;7.158;2024-01-07T15:38:06;1.80;;;1.70;;
33876;SDS011;20166;51.738;7.158;2024-01-07T15:40:52;1.90;;;1.70;;
33876;SDS011;20166;51.738;7.158;2024-01-07T15:43:39;2.87;;;1.97;;
33876;SDS011;20166;51.738;7.158;2024-01-07T15:46:25;2.77;;;2.07;;
33876;SDS011;20166;51.738;7.158;2024-01-07T15:49:13;2.17;;;1.97;;
33876;SDS011;20166;51.738;7.158;2024-01-07T15:51:59;1.37;;;1.33;;
33876;SDS011;20166;51.738;7.158;2024-01-07T15:54:45;3.00;;;2.20;;
33876;SDS011;20166;51.738;7.158;2024-01-07T15:57:32;1.70;;;1.53;;
33876;SDS011;20166;51.738;7.158;2024-01-07T16:00:18;2.80;;;1.60;;
33876;SDS011;20166;51.738;7.158;2024-01-07T16:03:05;1.57;;;1.43;;
33876;SDS011;20166;51.738;7.158;2024-01-07T16:05:53;1.73;;;1.63;;
33876;SDS011;20166;51.738;7.158;2024-01-07T16:08:40;1.60;;;1.50;;
33876;SDS011;20166;51.738;7.158;2024-01-07T16:11:26;3.33;;;1.90;;
33876;SDS011;20166;51.738;7.158;2024-01-07T16:14:13;2.20;;;2.00;;
33876;SDS011;20166;51.738;7.158;2024-01-07T16:17:01;2.73;;;1.53;;
33876;SDS011;20166;51.738;7.158;2024-01-07T16:19:47;2.30;;;2.03;;
33876;SDS011;20166;51.738;7.158;2024-01-07T16:22:35;1.67;;;1.57;;
33876;SDS011;20166;51.738;7.158;2024-01-07T16:25:21;1.10;;;1.10;;
33876;SDS011;20166;51.738;7.158;2024-01-07T16:28:07;2.00;;;1.80;;
33876;SDS011;20166;51.738;7.158;2024-01-07T16:30:53;2.13;;;1.80;;
33876;SDS011;20166;51.738;7.158;2024-01-07T16:33:40;1.63;;;1.53;;
33876;SDS011;20166;51.738;7.158;2024-01-07T16:36:27;4.33;;;2.80;;
33876;SDS011;20166;51.738;7.158;2024-01-07T16:39:14;3.70;;;2.60;;
33876;SDS011;20166;51.738;7.158;2024-01-07T16:42:00;6.37;;;2.90;;
33876;SDS011;20166;51.738;7.158;2024-01-07T16:44:47;2.67;;;2.30;;